This is the latest recevied weather packets stored in our database for station/object DD3UTS-13. If no packets are shown the sender has not sent any weather packets the latest 10 day(s).
| Time | Temp. | Humidity | Pressure | Rain* | Wind** | Luminosity | Snow |
|---|---|---|---|---|---|---|---|
| 1778097033 | 13.33° C | 79% | 1005.6 hPa | 0 mm | - | 0 W/m² | - |
| 1778096732 | 13.89° C | 79% | 1005.5 hPa | 0 mm | - | 0 W/m² | - |
| 1778096433 | 13.89° C | 78% | 1005.4 hPa | 0 mm | - | 0 W/m² | - |
| 1778096132 | 13.89° C | 78% | 1005.4 hPa | 0 mm | - | 0 W/m² | - |
| 1778095832 | 13.89° C | 77% | 1005.4 hPa | 0 mm | - | 0 W/m² | - |
| 1778095532 | 13.89° C | 77% | 1005.3 hPa | 0 mm | - | 0 W/m² | - |
| 1778095232 | 14.44° C | 77% | 1005.2 hPa | 0 mm | - | 0 W/m² | - |
| 1778094932 | 14.44° C | 76% | 1005.2 hPa | 0 mm | - | 0 W/m² | - |
| 1778094632 | 14.44° C | 75% | 1005.1 hPa | 0 mm | - | 0 W/m² | - |
| 1778094332 | 14.44° C | 75% | 1005 hPa | 0 mm | - | 0 W/m² | - |
| 1778094032 | 14.44° C | 75% | 1004.9 hPa | 0 mm | - | 0 W/m² | - |
| 1778093732 | 14.44° C | 74% | 1004.8 hPa | 0 mm | - | 0 W/m² | - |
| 1778093432 | 14.44° C | 74% | 1004.8 hPa | 0 mm | - | 0 W/m² | - |
| 1778093132 | 15° C | 73% | 1004.8 hPa | 0 mm | - | 0 W/m² | - |
| 1778092832 | 15° C | 72% | 1004.8 hPa | 0 mm | - | 0 W/m² | - |
| 1778092532 | 15° C | 71% | 1004.8 hPa | 0 mm | - | 0 W/m² | - |
| 1778092232 | 15° C | 71% | 1004.8 hPa | 0 mm | - | 0 W/m² | - |
| 1778091932 | 15.56° C | 70% | 1004.7 hPa | 0 mm | - | 2 W/m² | - |
| 1778091632 | 16.11° C | 69% | 1004.7 hPa | 0 mm | - | 5 W/m² | - |
| 1778091332 | 16.11° C | 68% | 1004.7 hPa | 0 mm | - | 7 W/m² | - |
| 1778091032 | 16.67° C | 67% | 1004.6 hPa | 0 mm | - | 12 W/m² | - |
| 1778090732 | 16.67° C | 66% | 1004.5 hPa | 0 mm | - | 14 W/m² | - |
| 1778090432 | 17.22° C | 64% | 1004.5 hPa | 0 mm | - | 21 W/m² | - |
| 1778090131 | 17.22° C | 63% | 1004.5 hPa | 0 mm | - | 30 W/m² | - |
| 1778089834 | 18.33° C | 61% | 1004.6 hPa | 0 mm | - | 64 W/m² | - |
* Rain latest 24 hours (hover to see other rain measurements)
** Current wind speed in m/s (hover to see current wind gust speed)